Beaver Island, MI (49782)

9:45 AM EDT on May 04, 2015 (GMT -0400)
Greene's Bay | | Change Station
CLOSE
Current Station
Personal Weather Station
Location: Beaver Island, MI
Elevation: 583 ft
Nearby Weather Stations

Elev 583 ft 45.63 °N, 85.61 °W | Updated 14 minutes ago

Overcast
Overcast
46.9 °F
Feels Like 47 °F
N
0.0
Wind Variable Wind from North
Gusts 1.0 mph

Today
High -- | Low -- °F
--% Chance of Precip.
Yesterday
High -- | Low -- °F
Precip. -- in
6:25 AM 8:52 PM
Full, 100% visible
Pressure 29.98 in
Visibility 10.0 miles
Clouds Scattered Clouds 6000 ft
Overcast 8500 ft
Windchill 47 °F
Dew Point 45 °F
Humidity 93%
Rainfall 0.00 in
Snow Depth Not available.
UV 1 out of 12
Pollen 8.80 out of 12
Air Quality Not available.
Flu Activity Regional
METAR KSJX 041335Z AUTO 28004KT 10SM SCT060 OVC085 11/08 A2998 RMK AO2 T01120083

More Conditions Fewer Conditions

Pressure 29.98 in
Visibility 10.0 miles
Clouds Scattered Clouds 6000 ft
Overcast 8500 ft
Windchill 47 °F
Dew Point 45 °F
Humidity 93%
Rainfall 0.00 in
Snow Depth Not available.
UV 1 out of 12
Pollen 8.80 out of 12
Air Quality Not available.
Flu Activity Regional
METAR KSJX 041335Z AUTO 28004KT 10SM SCT060 OVC085 11/08 A2998 RMK AO2 T01120083

More Conditions Fewer Conditions

Nepal has a long way to go to dig out and rebuild from a devastating earthquake. We have teamed up with several charities and organizations to make contributing to the relief effort as easy as possible.
How you can help: Portlight Strategies | Red Cross
Nowcast | as of 9:00 am EDT on May 4, 2015

At 10 am...mostly cloudy. Chance of showers. Temperature 53. Northwest winds 7 mph. At 12 PM...partly cloudy. Temperature 56. Northwest winds 8 mph. At 2 PM...partly cloudy. Temperature 59. Northwest winds 9 mph. At 4 PM...partly cloudy. Temperature 60. Northwest winds 10 mph.

×

10-Day Weather Forecast

Almanac

Astronomy

May. 04, 2015 Rise Set
Actual Time
Civil Twilight
Nautical Twilight
Astronomical Twilight
Moon
Length of Visible Light
Length of Day
Tomorrow will be .
, % of the Moon is Illuminated

Today's Extremes

State Highs State Lows

Community

WunderPhotos

Upload Photos

1,818,611 photos uploaded!

WunderBlogs® & News

Nearby

Air Quality

  Air Quality AQ Index Pollutant
Not available.

Snow Depth

Station Depth Elevation

Earthquake Activity

City Distance Mag. Time & Date
Minimum magnitude displayed is 2.5.

Coastal Water Temperatures

Place Temperature

Stations

Nearby Weather Stations

Station Location Temp. Windchill Dew Point Humidity Wind Precip. Elev Updated Type